Time;durP1;ratioP1;P1;durP2;ratioP2;P2;SDS_P1;SDS_P2;PMS_P1;PMS_P2;Temp;Humidity;BMP_temperature;BMP_pressure;BME280_temperature;BME280_humidity;BME280_pressure;Samples;Min_cycle;Max_cycle;Signal;HPM_P1;HPM_P2
2022/02/04 00:04:08;;;;;;;2.75;2.42;;;10.50;78.90;;;;;;5013486;28;20037;-80
2022/02/04 00:06:01;;;;;;;2.97;1.88;;;10.40;78.20;;;;;;5034400;28;20417;-80
2022/02/04 00:24:35;;;;;;;3.03;2.33;;;10.40;76.60;;;;;;5078867;28;20402;-80
2022/02/04 00:27:08;;;;;;;3.33;2.45;;;10.30;76.70;;;;;;5078654;28;20024;-80
2022/02/04 00:29:45;;;;;;;4.07;2.30;;;10.30;76.80;;;;;;5060922;28;20471;-80
2022/02/04 00:32:11;;;;;;;3.38;2.45;;;10.30;76.80;;;;;;5065446;28;20025;-80
2022/02/04 00:34:45;;;;;;;3.63;1.98;;;10.30;77.00;;;;;;5058626;28;20025;-80
2022/02/04 00:39:45;;;;;;;2.35;2.15;;;10.30;76.20;;;;;;5058740;28;20375;-80
2022/02/04 00:42:12;;;;;;;3.65;1.98;;;10.40;76.70;;;;;;5059040;28;20107;-80
2022/02/04 00:44:39;;;;;;;2.70;1.60;;;10.30;76.40;;;;;;5058412;28;20075;-80
2022/02/04 00:47:11;;;;;;;3.17;1.75;;;10.40;75.70;;;;;;5058233;28;20079;-80
2022/02/04 00:52:36;;;;;;;3.35;1.88;;;10.40;75.60;;;;;;5058356;28;20035;-81
2022/02/04 01:06:18;;;;;;;2.05;1.40;;;10.30;74.70;;;;;;5058164;28;19912;-80
2022/02/04 01:27:54;;;;;;;2.80;1.85;;;10.30;73.90;;;;;;5077806;28;20090;-81
2022/02/04 01:30:26;;;;;;;2.35;1.70;;;10.30;74.30;;;;;;5077583;28;20024;-81
2022/02/04 01:32:51;;;;;;;5.20;1.92;;;10.40;74.30;;;;;;5077517;28;20035;-81
2022/02/04 01:35:17;;;;;;;2.10;1.50;;;10.30;74.30;;;;;;5077508;28;20104;-81
2022/02/04 01:37:43;;;;;;;6.90;1.83;;;10.30;74.50;;;;;;5077332;28;20024;-81
2022/02/04 01:40:09;;;;;;;3.03;1.90;;;10.30;75.00;;;;;;5077545;28;20031;-81
2022/02/04 01:42:35;;;;;;;3.22;2.08;;;10.30;74.90;;;;;;5077550;28;20059;-81
2022/02/04 01:45:01;;;;;;;3.15;2.30;;;10.30;74.60;;;;;;5059396;28;20020;-81
2022/02/04 01:47:26;;;;;;;3.65;2.50;;;10.30;75.60;;;;;;5059647;28;20029;-81
2022/02/04 01:49:52;;;;;;;3.65;2.72;;;10.30;75.60;;;;;;5059575;28;20355;-80
2022/02/04 01:52:18;;;;;;;4.20;2.70;;;10.30;76.20;;;;;;5059235;28;20028;-81
2022/02/04 01:54:43;;;;;;;3.28;2.85;;;10.30;76.50;;;;;;5077325;28;20039;-81
2022/02/04 01:57:09;;;;;;;4.05;3.05;;;10.30;76.80;;;;;;5059235;28;20110;-81
2022/02/04 01:59:35;;;;;;;5.03;3.35;;;10.30;77.00;;;;;;5077541;28;20104;-81
2022/02/04 02:02:00;;;;;;;6.97;3.45;;;10.30;77.50;;;;;;5077029;28;20025;-81
2022/02/04 02:04:26;;;;;;;4.70;3.92;;;10.30;77.70;;;;;;5059208;28;20088;-81
2022/02/04 02:06:56;;;;;;;6.22;3.92;;;10.40;78.10;;;;;;5058964;28;20437;-81
2022/02/04 02:09:28;;;;;;;6.47;4.38;;;10.40;78.50;;;;;;5077080;28;20027;-81
2022/02/04 02:11:57;;;;;;;5.85;4.45;;;10.30;79.20;;;;;;5076970;28;20142;-81
2022/02/04 02:14:27;;;;;;;6.85;4.20;;;10.30;79.50;;;;;;5077122;28;20108;-81
2022/02/04 02:49:34;;;;;;;4.30;3.15;;;10.40;78.60;;;;;;5060503;28;20017;-82
2022/02/04 03:00:27;;;;;;;4.95;2.90;;;10.30;78.80;;;;;;5060546;28;20036;-82
2022/02/04 03:02:23;;;;;;;3.90;2.88;;;10.30;78.50;;;;;;5051947;28;20037;-82
2022/02/04 03:04:49;;;;;;;4.63;3.00;;;10.30;78.70;;;;;;5042698;28;20391;-82
2022/02/04 03:07:14;;;;;;;5.30;2.85;;;10.30;78.70;;;;;;5060424;28;20036;-82
2022/02/04 03:09:40;;;;;;;4.35;3.10;;;10.30;78.80;;;;;;5060321;28;20025;-82
2022/02/04 03:12:07;;;;;;;7.18;3.35;;;10.30;78.40;;;;;;5060252;28;20056;-82
2022/02/04 03:14:32;;;;;;;4.85;2.83;;;10.30;78.50;;;;;;5042303;28;20024;-81
2022/02/04 03:17:00;;;;;;;3.45;2.65;;;10.30;78.60;;;;;;5060183;28;20372;-81
2022/02/04 03:19:27;;;;;;;3.25;2.53;;;10.30;78.50;;;;;;5065770;28;20027;-82
2022/02/04 03:21:52;;;;;;;4.82;2.53;;;10.40;78.40;;;;;;5062282;28;20032;-82
2022/02/04 03:24:22;;;;;;;3.80;2.40;;;10.30;78.50;;;;;;5080031;28;20079;-82
2022/02/04 03:26:52;;;;;;;3.17;2.23;;;10.40;78.60;;;;;;5080051;28;20065;-82
2022/02/04 03:29:27;;;;;;;;;;;10.30;78.30;;;;;;5080443;28;20077;-82
2022/02/04 03:31:57;;;;;;;3.60;2.38;;;10.30;78.30;;;;;;5080111;28;19904;-82
2022/02/04 03:34:23;;;;;;;3.65;2.15;;;10.40;78.30;;;;;;5080007;28;20035;-81
2022/02/04 03:36:49;;;;;;;3.97;2.40;;;10.40;78.00;;;;;;5079870;28;20024;-82
2022/02/04 03:39:14;;;;;;;3.03;2.40;;;10.40;78.10;;;;;;5079370;28;20028;-82
2022/02/04 03:41:40;;;;;;;3.72;2.38;;;10.40;78.10;;;;;;5079446;28;20479;-82
2022/02/04 03:44:06;;;;;;;4.28;2.20;;;10.40;78.20;;;;;;5079711;28;20031;-81
2022/02/04 03:46:32;;;;;;;2.85;2.25;;;10.30;78.50;;;;;;5079770;28;20017;-81
2022/02/04 03:48:57;;;;;;;4.35;2.65;;;10.30;78.90;;;;;;5079605;28;20020;-82
2022/02/04 03:51:23;;;;;;;5.35;2.65;;;10.30;79.20;;;;;;5079735;28;20074;-82
2022/02/04 03:53:49;;;;;;;3.50;2.60;;;10.30;79.20;;;;;;5079396;28;20040;-82
2022/02/04 03:56:14;;;;;;;6.82;2.55;;;10.30;79.30;;;;;;5079582;28;20103;-82
2022/02/04 03:58:42;;;;;;;4.03;2.60;;;10.30;79.50;;;;;;5079620;28;20016;-82
2022/02/04 04:01:08;;;;;;;6.15;2.90;;;10.30;79.90;;;;;;5079357;28;20044;-82
2022/02/04 04:03:34;;;;;;;4.13;2.53;;;10.30;80.00;;;;;;5079620;28;20561;-82
2022/02/04 04:06:00;;;;;;;3.60;3.30;;;10.30;80.20;;;;;;5079343;28;20024;-82
2022/02/04 04:08:25;;;;;;;3.95;2.78;;;10.30;80.20;;;;;;5079285;28;20069;-82
2022/02/04 04:10:52;;;;;;;5.40;3.30;;;10.30;80.50;;;;;;5078919;28;20047;-82
2022/02/04 04:13:18;;;;;;;4.15;2.70;;;10.20;81.20;;;;;;5061064;28;20020;-82
2022/02/04 04:15:44;;;;;;;3.13;2.42;;;10.20;81.30;;;;;;5061136;28;20119;-82
2022/02/04 04:18:12;;;;;;;4.63;3.45;;;10.30;81.50;;;;;;5079167;28;20047;-82
2022/02/04 04:20:39;;;;;;;4.72;3.45;;;10.20;81.60;;;;;;5063143;28;20032;-82
2022/02/04 04:23:05;;;;;;;5.85;3.33;;;10.30;81.80;;;;;;5058755;28;20032;-81
2022/02/04 04:25:30;;;;;;;4.88;3.13;;;10.30;81.80;;;;;;5058931;28;20025;-82
2022/02/04 04:27:56;;;;;;;5.85;3.03;;;10.30;82.10;;;;;;5058846;28;20021;-82
2022/02/04 04:30:24;;;;;;;4.88;3.10;;;10.30;82.00;;;;;;5058929;28;20029;-82
2022/02/04 04:32:55;;;;;;;4.25;3.28;;;10.30;82.10;;;;;;5058825;28;20025;-82
2022/02/04 04:35:24;;;;;;;4.50;3.33;;;10.30;82.20;;;;;;5058815;28;20036;-82
2022/02/04 04:43:33;;;;;;;7.28;2.70;;;10.30;82.20;;;;;;5058588;28;20025;-82
2022/02/04 05:29:45;;;;;;;8.23;4.00;;;10.20;83.40;;;;;;5077533;28;20070;-83
2022/02/04 05:32:10;;;;;;;6.78;3.10;;;10.20;83.40;;;;;;5077767;28;20028;-82
2022/02/04 05:34:36;;;;;;;5.97;3.67;;;10.20;83.40;;;;;;5077635;28;20024;-82
2022/02/04 05:37:07;;;;;;;5.65;3.20;;;10.30;83.30;;;;;;5059359;28;20049;-82
2022/02/04 05:39:47;;;;;;;4.43;3.20;;;10.30;83.30;;;;;;5059340;28;20025;-83
2022/02/04 05:42:19;;;;;;;3.97;2.78;;;10.30;83.20;;;;;;5077539;28;20020;-82
2022/02/04 05:44:52;;;;;;;6.43;4.00;;;10.30;83.10;;;;;;5077392;28;20475;-81
2022/02/04 06:02:42;;;;;;;5.43;3.60;;;9.00;87.00;;;;;;5072443;28;20431;-81
2022/02/04 06:05:18;;;;;;;5.22;3.22;;;8.90;87.40;;;;;;5053885;28;20455;-77
2022/02/04 06:23:44;;;;;;;4.35;2.92;;;10.10;84.40;;;;;;5049795;28;20117;-74
2022/02/04 06:26:10;;;;;;;6.25;3.75;;;10.20;84.10;;;;;;5052216;28;20459;-73
2022/02/04 06:28:35;;;;;;;4.78;3.53;;;10.20;83.80;;;;;;5050598;28;20024;-73
2022/02/04 06:31:02;;;;;;;9.70;3.78;;;10.30;83.60;;;;;;5052131;28;20052;-74
2022/02/04 06:33:28;;;;;;;6.30;3.88;;;10.30;83.30;;;;;;5053314;28;20022;-73
2022/02/04 06:35:54;;;;;;;6.72;3.95;;;10.30;83.30;;;;;;5052290;28;20120;-73
2022/02/04 06:38:21;;;;;;;5.43;3.65;;;10.30;83.10;;;;;;5053199;28;20040;-73
2022/02/04 06:40:47;;;;;;;5.20;3.03;;;10.30;83.10;;;;;;5051314;28;20033;-73
2022/02/04 06:43:12;;;;;;;4.57;3.35;;;10.30;83.20;;;;;;5051303;28;20543;-73
2022/02/04 06:45:40;;;;;;;5.20;3.22;;;10.30;82.90;;;;;;5050360;28;20025;-73
2022/02/04 06:48:06;;;;;;;6.93;3.53;;;10.30;82.90;;;;;;5050624;28;20021;-73
2022/02/04 06:50:32;;;;;;;5.30;3.08;;;10.30;82.80;;;;;;5052057;28;20025;-73
2022/02/04 06:52:58;;;;;;;7.22;3.17;;;10.30;82.50;;;;;;5049917;28;20032;-73
2022/02/04 06:55:23;;;;;;;5.53;3.45;;;10.30;82.60;;;;;;5050520;28;20040;-74
2022/02/04 06:57:50;;;;;;;7.50;3.83;;;10.30;82.50;;;;;;5051738;28;20021;-73
2022/02/04 07:00:18;;;;;;;5.75;2.95;;;10.30;82.50;;;;;;5051629;28;20053;-75
2022/02/04 07:02:47;;;;;;;3.72;2.28;;;10.30;82.30;;;;;;5047384;28;20021;-72
2022/02/04 07:05:14;;;;;;;5.20;3.00;;;10.30;82.00;;;;;;5050991;28;20476;-73
2022/02/04 07:07:44;;;;;;;4.05;2.90;;;10.30;82.40;;;;;;5049838;28;20021;-73
2022/02/04 07:10:16;;;;;;;4.47;2.80;;;10.30;82.40;;;;;;5052897;28;20384;-73
2022/02/04 07:12:52;;;;;;;5.25;2.63;;;10.30;82.40;;;;;;5045063;28;20037;-73
2022/02/04 07:18:00;;;;;;;5.53;2.47;;;10.30;82.30;;;;;;5039818;28;20491;-73
2022/02/04 07:20:26;;;;;;;7.23;3.00;;;10.30;82.40;;;;;;5051676;28;20036;-73
2022/02/04 07:22:51;;;;;;;5.28;2.55;;;10.20;82.60;;;;;;5057842;28;21067;-74
2022/02/04 07:25:17;;;;;;;3.63;2.40;;;10.30;82.20;;;;;;5049988;28;20068;-74
2022/02/04 07:27:44;;;;;;;5.43;3.10;;;10.20;82.90;;;;;;5038627;28;20017;-73
2022/02/04 07:30:11;;;;;;;4.97;2.45;;;10.20;83.30;;;;;;5038544;28;20483;-74
2022/02/04 07:33:07;;;;;;;3.17;2.35;;;10.20;83.50;;;;;;5036171;28;20097;-73
2022/02/04 07:41:03;;;;;;;4.45;2.28;;;10.00;84.10;;;;;;5039352;28;20041;-73
2022/02/04 07:43:29;;;;;;;4.20;2.10;;;10.00;84.20;;;;;;5039129;28;20028;-74
2022/02/04 07:45:56;;;;;;;3.92;2.22;;;10.00;84.10;;;;;;5038217;28;20049;-74
2022/02/04 07:48:21;;;;;;;5.25;3.00;;;10.00;83.90;;;;;;5039011;28;20018;-74
2022/02/04 07:50:48;;;;;;;3.78;2.63;;;10.10;83.90;;;;;;5038887;28;20026;-73
2022/02/04 07:53:14;;;;;;;5.88;2.35;;;10.20;83.70;;;;;;5037210;28;20081;-74
2022/02/04 07:55:40;;;;;;;3.40;2.28;;;10.20;83.60;;;;;;5036957;28;20037;-74
2022/02/04 07:58:08;;;;;;;4.10;2.63;;;10.20;83.40;;;;;;5038012;28;20031;-74
2022/02/04 08:00:35;;;;;;;3.70;2.33;;;10.20;83.40;;;;;;5038191;28;20052;-74
2022/02/04 08:03:09;;;;;;;3.67;2.40;;;10.20;83.50;;;;;;5037905;28;20013;-74
2022/02/04 08:05:34;;;;;;;4.63;2.63;;;10.20;83.60;;;;;;5038068;28;20108;-74
2022/02/04 08:08:14;;;;;;;3.40;2.35;;;10.30;83.40;;;;;;5037979;28;20057;-74
2022/02/04 08:10:48;;;;;;;3.25;2.08;;;10.20;83.40;;;;;;5038138;28;20092;-74
2022/02/04 08:16:19;;;;;;;3.42;2.42;;;10.30;83.10;;;;;;5038009;28;20029;-74
2022/02/04 08:24:13;;;;;;;3.38;1.70;;;10.40;82.50;;;;;;5056708;28;20036;-74
2022/02/04 08:29:44;;;;;;;5.50;1.92;;;10.30;82.30;;;;;;5040774;28;20032;-74
2022/02/04 08:49:00;;;;;;;3.65;1.80;;;10.70;81.20;;;;;;5037523;28;20028;-74
2022/02/04 08:56:15;;;;;;;2.28;1.42;;;10.70;81.20;;;;;;5037296;28;20129;-74
2022/02/04 08:58:50;;;;;;;3.40;2.00;;;10.80;80.50;;;;;;5035719;28;20057;-74
2022/02/04 09:01:31;;;;;;;3.22;1.50;;;10.80;80.90;;;;;;5037026;28;20045;-74
2022/02/04 09:04:11;;;;;;;3.33;1.48;;;10.90;80.40;;;;;;5037540;28;20022;-74
2022/02/04 09:06:41;;;;;;;2.30;1.80;;;11.00;80.20;;;;;;5036692;28;20056;-74
2022/02/04 09:09:14;;;;;;;3.50;1.38;;;11.00;79.90;;;;;;5037119;28;20484;-74
2022/02/04 09:11:44;;;;;;;5.65;1.50;;;11.20;79.90;;;;;;5036906;28;20057;-74
2022/02/04 09:24:49;;;;;;;3.53;1.30;;;11.60;77.30;;;;;;5057088;28;20025;-74
2022/02/04 09:27:15;;;;;;;2.60;1.15;;;11.70;77.00;;;;;;5055765;28;20387;-74
2022/02/04 09:29:41;;;;;;;2.88;1.30;;;11.80;76.70;;;;;;5056823;28;20399;-74
2022/02/04 09:32:07;;;;;;;3.10;1.60;;;11.90;76.10;;;;;;5055485;28;20040;-74
2022/02/04 09:34:35;;;;;;;2.22;1.50;;;12.10;76.10;;;;;;5055261;28;20130;-74
2022/02/04 09:37:01;;;;;;;2.22;1.13;;;12.10;76.00;;;;;;5055924;28;20514;-74
2022/02/04 09:39:27;;;;;;;2.13;1.10;;;12.10;74.80;;;;;;5040448;28;20091;-74
2022/02/04 09:41:53;;;;;;;3.88;1.20;;;12.30;75.00;;;;;;5035224;28;20025;-74
2022/02/04 09:44:18;;;;;;;2.67;1.25;;;12.30;75.60;;;;;;5036747;28;20438;-74
2022/02/04 09:46:44;;;;;;;2.53;1.30;;;11.90;74.90;;;;;;5036284;28;20022;-74
2022/02/04 09:49:26;;;;;;;3.00;2.47;;;12.10;75.50;;;;;;5035041;28;20084;-74
2022/02/04 10:08:55;;;;;;;;;;;14.00;68.90;;;;;;5035630;28;20029;-74
2022/02/04 10:17:10;;;;;;;2.40;0.70;;;14.20;68.00;;;;;;5034750;28;20033;-74
2022/02/04 10:19:49;;;;;;;2.17;1.05;;;14.10;67.70;;;;;;5041855;28;20051;-74
2022/02/04 10:22:20;;;;;;;2.15;0.80;;;14.00;68.30;;;;;;5054614;28;20032;-74
2022/02/04 10:25:01;;;;;;;1.70;0.90;;;13.60;69.10;;;;;;5052532;28;20115;-75
2022/02/04 10:27:32;;;;;;;1.52;0.90;;;13.60;69.40;;;;;;5034740;28;20025;-74
2022/02/04 10:30:03;;;;;;;1.80;0.88;;;13.40;69.90;;;;;;5034774;28;20499;-74
2022/02/04 10:32:38;;;;;;;2.35;0.85;;;13.40;69.70;;;;;;5033475;28;20123;-74
2022/02/04 10:35:24;;;;;;;4.78;1.15;;;13.30;70.30;;;;;;5034905;28;20037;-75
2022/02/04 10:43:58;;;;;;;;;;;13.20;71.20;;;;;;5034847;28;20100;-74
2022/02/04 10:46:08;;;;;;;1.73;1.00;;;13.30;70.80;;;;;;5016999;28;19905;-76
2022/02/04 11:31:59;;;;;;;4.63;1.40;;;13.30;70.60;;;;;;5058572;28;20119;-75
2022/02/04 11:34:27;;;;;;;4.13;1.00;;;13.20;70.70;;;;;;5038926;28;20033;-75
2022/02/04 11:51:32;;;;;;;2.05;0.88;;;13.20;71.80;;;;;;5037318;28;20039;-75
2022/02/04 11:54:33;;;;;;;6.00;1.15;;;13.10;72.00;;;;;;5038617;28;20583;-74
2022/02/04 11:57:00;;;;;;;2.97;1.10;;;13.20;72.30;;;;;;5035536;28;20042;-74
2022/02/04 11:59:46;;;;;;;6.00;1.30;;;13.10;72.10;;;;;;5035786;28;20072;-75
2022/02/04 12:02:27;;;;;;;4.00;1.90;;;13.10;72.40;;;;;;5029310;28;20049;-76
2022/02/04 12:05:18;;;;;;;3.95;1.00;;;13.20;72.50;;;;;;5037888;28;20133;-76
2022/02/04 12:07:51;;;;;;;5.38;1.20;;;13.20;72.50;;;;;;5031999;28;20412;-75
2022/02/04 12:10:16;;;;;;;6.40;1.10;;;13.20;72.60;;;;;;5033667;28;20026;-76
2022/02/04 12:15:42;;;;;;;3.17;1.23;;;13.10;74.00;;;;;;5036617;28;20030;-77
2022/02/04 12:18:15;;;;;;;3.45;1.10;;;12.90;76.10;;;;;;5029856;28;20034;-74
2022/02/04 12:23:27;;;;;;;4.82;1.52;;;12.80;78.50;;;;;;5034540;28;20479;-74
2022/02/04 12:25:58;;;;;;;4.35;1.55;;;12.60;79.40;;;;;;5021557;28;20030;-76
2022/02/04 12:29:03;;;;;;;4.00;1.10;;;12.20;82.20;;;;;;5035576;28;20036;-77
2022/02/04 12:31:33;;;;;;;1.23;0.63;;;11.50;84.80;;;;;;5038144;28;20091;-76
2022/02/04 12:34:11;;;;;;;0.75;0.40;;;11.10;86.50;;;;;;5035981;28;20068;-77
2022/02/04 12:36:40;;;;;;;0.70;0.60;;;10.60;84.80;;;;;;5033779;28;20048;-76
2022/02/04 12:39:18;;;;;;;0.45;0.40;;;10.50;86.00;;;;;;5036611;28;20029;-76
2022/02/04 12:41:49;;;;;;;1.33;0.70;;;10.50;86.00;;;;;;5036589;28;20021;-77
2022/02/04 12:44:22;;;;;;;0.82;0.50;;;10.50;85.10;;;;;;5035458;28;20076;-76
2022/02/04 12:46:52;;;;;;;1.13;0.80;;;10.50;85.00;;;;;;5034101;28;20022;-76
2022/02/04 12:49:20;;;;;;;0.52;0.50;;;10.60;84.70;;;;;;5036808;28;20104;-76
2022/02/04 12:54:36;;;;;;;0.98;0.50;;;10.60;82.60;;;;;;5036396;28;20074;-77
2022/02/04 13:07:59;;;;;;;1.67;0.80;;;10.20;80.70;;;;;;5036501;28;20086;-77
2022/02/04 13:10:29;;;;;;;1.02;0.65;;;10.20;81.10;;;;;;5035342;28;20022;-77
2022/02/04 13:12:59;;;;;;;;;;;10.10;80.70;;;;;;5017391;28;20057;-77
2022/02/04 13:15:28;;;;;;;1.02;0.65;;;10.10;80.60;;;;;;5017582;28;19912;-77
2022/02/04 13:17:54;;;;;;;5.90;1.50;;;10.20;80.90;;;;;;5017337;28;20546;-76
2022/02/04 13:20:21;;;;;;;3.80;0.95;;;10.30;81.00;;;;;;5042108;28;20476;-77
2022/02/04 13:22:50;;;;;;;5.65;1.20;;;10.40;81.00;;;;;;5056902;28;20021;-77
2022/02/04 13:25:22;;;;;;;2.53;1.23;;;10.40;78.90;;;;;;5056987;28;20222;-77
2022/02/04 13:28:04;;;;;;;10.18;1.10;;;10.50;80.30;;;;;;5055719;28;20056;-77
2022/02/04 13:31:03;;;;;;;3.75;0.90;;;10.60;79.40;;;;;;5057125;28;20029;-77
2022/02/04 13:33:40;;;;;;;4.13;0.85;;;10.90;79.80;;;;;;5056853;28;20051;-77
2022/02/04 13:43:57;;;;;;;4.88;1.33;;;10.90;76.10;;;;;;5056979;28;20124;-77
2022/02/04 13:46:33;;;;;;;5.90;0.90;;;11.10;76.50;;;;;;5056619;28;20029;-77
2022/02/04 13:49:18;;;;;;;3.63;0.98;;;11.00;75.00;;;;;;5056600;28;20087;-77
2022/02/04 13:52:01;;;;;;;6.15;1.38;;;11.00;74.70;;;;;;5056577;28;20025;-77
2022/02/04 14:02:51;;;;;;;5.88;1.33;;;11.00;71.20;;;;;;5056505;28;20037;-77
2022/02/04 14:05:26;;;;;;;6.72;1.15;;;10.80;69.60;;;;;;5056056;28;20025;-76
2022/02/04 14:08:02;;;;;;;5.28;1.23;;;11.00;72.00;;;;;;5056398;28;20021;-76
2022/02/04 14:10:34;;;;;;;3.67;1.13;;;11.00;71.00;;;;;;5055046;28;20147;-75
2022/02/04 14:13:11;;;;;;;7.85;1.75;;;11.00;70.60;;;;;;5015453;28;20084;-77
2022/02/04 14:15:39;;;;;;;4.20;0.95;;;11.10;71.50;;;;;;5016703;28;20026;-76
2022/02/04 14:18:09;;;;;;;6.03;0.90;;;11.10;67.50;;;;;;5016989;28;20072;-76
2022/02/04 14:20:37;;;;;;;2.47;0.93;;;11.20;68.90;;;;;;5046610;28;20084;-78
2022/02/04 14:23:05;;;;;;;5.38;1.60;;;10.80;66.40;;;;;;5058619;28;20521;-77
2022/02/04 14:25:31;;;;;;;3.28;1.00;;;10.60;67.20;;;;;;5060007;28;20549;-77
2022/02/04 14:28:01;;;;;;;7.78;1.85;;;10.50;68.00;;;;;;5060475;28;20017;-77
2022/02/04 14:30:33;;;;;;;6.20;1.48;;;10.40;68.00;;;;;;5060322;28;20025;-76
2022/02/04 14:33:09;;;;;;;5.05;1.10;;;10.60;67.20;;;;;;5060540;28;20033;-76
2022/02/04 14:35:52;;;;;;;6.03;1.35;;;10.70;67.00;;;;;;5059857;28;20021;-76
2022/02/04 14:49:23;;;;;;;3.85;1.00;;;10.90;66.10;;;;;;5060108;28;20104;-76
2022/02/04 14:54:48;;;;;;;3.80;0.93;;;11.00;67.00;;;;;;5059881;28;20083;-76
2022/02/04 15:01:02;;;;;;;2.72;0.80;;;10.90;62.00;;;;;;5059699;28;19999;-75
2022/02/04 15:03:13;;;;;;;4.70;0.95;;;10.80;62.10;;;;;;5059141;28;20380;-77
2022/02/04 15:05:43;;;;;;;5.03;1.00;;;10.80;61.60;;;;;;5059322;28;20108;-76
2022/02/04 15:08:13;;;;;;;7.85;1.30;;;10.80;61.90;;;;;;5059925;28;20028;-76
2022/02/04 15:10:40;;;;;;;3.78;0.90;;;10.70;62.90;;;;;;5058126;28;20450;-75
2022/02/04 15:13:13;;;;;;;5.35;1.02;;;10.60;61.20;;;;;;5038238;28;20093;-76
2022/02/04 15:15:40;;;;;;;8.15;1.25;;;10.80;61.90;;;;;;5039272;28;20101;-68
2022/02/04 15:18:06;;;;;;;4.38;1.08;;;10.80;61.30;;;;;;5039301;28;20047;-68
2022/02/04 15:20:31;;;;;;;5.70;0.90;;;11.00;66.40;;;;;;5053894;28;20088;-68
2022/02/04 15:22:57;;;;;;;5.53;1.23;;;11.20;61.60;;;;;;5059550;28;20471;-68
2022/02/04 15:25:24;;;;;;;6.05;1.50;;;11.30;60.70;;;;;;5057623;28;20047;-67
2022/02/04 15:30:39;;;;;;;7.45;1.20;;;11.20;61.30;;;;;;5059371;28;20052;-68
2022/02/04 15:33:06;;;;;;;5.93;1.00;;;10.90;63.10;;;;;;5058659;28;20032;-76
2022/02/04 15:35:32;;;;;;;5.68;1.23;;;10.70;61.60;;;;;;5058948;28;20128;-76
2022/02/04 15:37:58;;;;;;;7.53;1.23;;;10.50;62.80;;;;;;5058896;28;20500;-76
2022/02/04 15:40:23;;;;;;;6.60;1.63;;;10.40;63.40;;;;;;5059119;28;20033;-76
2022/02/04 15:43:01;;;;;;;5.25;1.20;;;10.30;63.60;;;;;;5058995;28;20479;-78
2022/02/04 15:50:37;;;;;;;5.28;1.20;;;10.40;62.60;;;;;;5036354;28;20047;-75
2022/02/04 16:00:58;;;;;;;7.00;1.35;;;10.50;62.30;;;;;;5037007;28;20176;-74
2022/02/04 16:05:55;;;;;;;5.82;1.42;;;10.60;61.70;;;;;;5058044;28;20032;-78
2022/02/04 16:08:21;;;;;;;4.05;1.55;;;10.70;63.10;;;;;;5055280;28;20022;-76
2022/02/04 16:13:32;;;;;;;10.00;1.63;;;10.50;61.40;;;;;;5058491;28;20044;-76
2022/02/04 16:16:09;;;;;;;10.63;2.00;;;10.40;61.50;;;;;;5058457;28;20065;-77
2022/02/04 16:18:43;;;;;;;6.57;1.20;;;10.40;62.40;;;;;;5040102;28;20504;-76
2022/02/04 16:21:17;;;;;;;2.53;0.90;;;10.40;62.60;;;;;;5046896;28;20546;-76
2022/02/04 16:24:00;;;;;;;6.47;1.67;;;10.40;63.20;;;;;;5042297;28;20033;-76
2022/02/04 16:26:48;;;;;;;4.47;1.10;;;10.30;62.20;;;;;;5035334;28;20029;-76
2022/02/04 16:29:12;;;;;;;5.93;1.08;;;10.20;62.20;;;;;;5032822;28;20025;-77
2022/02/04 16:31:37;;;;;;;5.80;1.33;;;10.10;63.10;;;;;;5041185;28;20036;-76
2022/02/04 16:34:08;;;;;;;7.97;1.38;;;9.90;63.80;;;;;;5036618;28;20494;-76
2022/02/04 16:36:38;;;;;;;13.25;1.70;;;9.90;64.10;;;;;;5036056;28;20030;-76
2022/02/04 16:39:04;;;;;;;13.07;2.72;;;9.90;64.50;;;;;;5029414;28;20032;-77
2022/02/04 16:41:33;;;;;;;4.35;1.58;;;9.80;65.30;;;;;;5034815;28;20025;-75
2022/02/04 16:44:00;;;;;;;9.07;2.00;;;9.70;65.50;;;;;;5035271;28;20026;-75
2022/02/04 16:46:26;;;;;;;5.93;1.65;;;9.70;66.00;;;;;;5030279;28;20642;-74
2022/02/04 16:48:52;;;;;;;9.43;3.10;;;9.70;65.30;;;;;;5032306;28;20025;-75
2022/02/04 16:51:18;;;;;;;10.15;3.10;;;9.70;65.60;;;;;;5035917;28;20438;-76
2022/02/04 16:53:44;;;;;;;8.13;2.10;;;9.70;65.50;;;;;;5031972;28;20030;-76
2022/02/04 16:56:11;;;;;;;4.88;1.85;;;9.70;65.40;;;;;;5036894;28;20040;-75
2022/02/04 16:58:36;;;;;;;7.53;2.60;;;9.70;64.90;;;;;;5032612;28;20385;-74
2022/02/04 17:01:03;;;;;;;4.90;2.78;;;9.70;65.10;;;;;;5033094;28;20042;-75
2022/02/04 17:03:29;;;;;;;4.65;1.50;;;9.60;65.10;;;;;;5036815;28;20109;-74
2022/02/04 17:05:59;;;;;;;8.65;1.67;;;9.40;65.20;;;;;;5033827;28;20041;-75
2022/02/04 17:08:33;;;;;;;6.82;1.60;;;9.40;66.60;;;;;;5036858;28;20041;-76
2022/02/04 17:11:09;;;;;;;9.52;2.72;;;9.40;66.60;;;;;;5032282;28;20048;-75
2022/02/04 17:13:34;;;;;;;8.95;2.75;;;9.30;66.00;;;;;;5031683;28;20545;-74
2022/02/04 17:16:00;;;;;;;9.43;2.80;;;9.20;66.50;;;;;;5032335;28;20506;-77
2022/02/04 17:18:26;;;;;;;7.45;2.47;;;9.20;66.90;;;;;;5036660;28;20484;-75
2022/02/04 17:20:53;;;;;;;6.28;2.65;;;9.20;67.10;;;;;;5035818;28;20373;-75
2022/02/04 17:23:31;;;;;;;6.55;2.58;;;9.20;68.30;;;;;;5034752;28;20025;-77
2022/02/04 17:25:58;;;;;;;9.15;2.75;;;9.10;68.90;;;;;;5035725;28;20140;-77
2022/02/04 17:28:30;;;;;;;7.82;2.33;;;9.10;69.20;;;;;;5033675;28;20029;-74
2022/02/04 17:30:57;;;;;;;6.63;3.08;;;9.00;69.40;;;;;;5049910;28;20031;-74
2022/02/04 17:33:24;;;;;;;6.40;3.58;;;9.00;69.50;;;;;;5056944;28;20161;-74
2022/02/04 17:35:50;;;;;;;8.52;3.50;;;8.90;70.00;;;;;;5055669;28;20434;-74
2022/02/04 17:38:16;;;;;;;6.20;3.03;;;8.90;70.20;;;;;;5055785;28;20021;-75
2022/02/04 17:40:42;;;;;;;6.38;3.40;;;8.80;70.80;;;;;;5056829;28;20443;-75
2022/02/04 17:43:08;;;;;;;10.88;3.80;;;8.70;71.00;;;;;;5055520;28;20025;-76
2022/02/04 17:45:34;;;;;;;7.43;3.30;;;8.70;70.80;;;;;;5057028;28;20048;-75
2022/02/04 17:48:07;;;;;;;9.68;3.80;;;8.70;71.30;;;;;;5055311;28;20029;-75
2022/02/04 17:50:47;;;;;;;7.72;3.65;;;8.70;71.00;;;;;;5045207;28;20025;-75
2022/02/04 17:53:18;;;;;;;11.10;4.05;;;8.60;71.00;;;;;;5036309;28;20431;-75
2022/02/04 17:56:07;;;;;;;6.72;3.55;;;8.50;71.10;;;;;;5036792;28;20364;-75
2022/02/04 17:58:41;;;;;;;8.57;4.20;;;8.50;71.80;;;;;;5032120;28;20025;-75
2022/02/04 18:06:33;;;;;;;14.05;5.80;;;8.30;72.10;;;;;;5032686;28;20049;-76
2022/02/04 18:08:59;;;;;;;8.13;4.57;;;8.20;72.00;;;;;;5034736;28;20089;-76
2022/02/04 18:11:26;;;;;;;10.23;4.72;;;8.20;72.70;;;;;;5035792;28;20029;-76
2022/02/04 18:13:53;;;;;;;7.82;4.55;;;8.10;72.90;;;;;;5034615;28;20036;-76
2022/02/04 18:16:18;;;;;;;12.95;5.03;;;8.10;72.90;;;;;;5035187;28;20116;-76
2022/02/04 18:18:44;;;;;;;14.25;5.07;;;8.00;73.10;;;;;;5036499;28;20063;-81
2022/02/04 18:21:10;;;;;;;9.90;5.78;;;8.00;73.40;;;;;;5022125;28;20115;-81
2022/02/04 18:23:36;;;;;;;20.38;10.40;;;8.00;73.20;;;;;;5023153;28;20060;-82
2022/02/04 18:26:02;;;;;;;25.90;15.25;;;7.90;73.00;;;;;;5035096;28;20017;-80
2022/02/04 18:28:29;;;;;;;24.08;14.63;;;7.90;72.50;;;;;;5029457;28;21059;-88
2022/02/04 18:30:55;;;;;;;22.58;13.32;;;7.80;72.90;;;;;;5025783;28;20032;-86
2022/02/04 18:33:21;;;;;;;25.45;11.05;;;7.80;73.20;;;;;;5027572;28;20037;-88
2022/02/04 18:35:56;;;;;;;16.70;10.80;;;7.80;72.80;;;;;;5031027;28;20026;-85
2022/02/04 18:38:33;;;;;;;12.48;7.60;;;7.70;73.30;;;;;;5026724;28;20041;-78
2022/02/04 18:45:57;;;;;;;11.77;7.40;;;7.60;74.10;;;;;;5032130;28;20022;-81
2022/02/04 18:48:26;;;;;;;14.10;8.57;;;7.60;74.10;;;;;;5032920;28;20053;-79
2022/02/04 18:51:18;;;;;;;18.70;8.38;;;7.50;74.00;;;;;;5035195;28;20036;-80
2022/02/04 18:53:42;;;;;;;22.65;8.20;;;7.50;74.40;;;;;;5041534;28;20041;-79
2022/02/04 18:56:33;;;;;;;15.07;7.95;;;7.40;74.40;;;;;;5033046;28;20112;-79
2022/02/04 18:58:59;;;;;;;10.77;6.65;;;7.50;74.60;;;;;;5043342;28;20431;-81
2022/02/04 19:01:27;;;;;;;12.45;7.60;;;7.40;74.60;;;;;;5032944;28;20042;-81
2022/02/04 19:03:59;;;;;;;12.93;8.95;;;7.40;74.60;;;;;;5026106;28;20034;-79
2022/02/04 19:06:34;;;;;;;17.83;9.35;;;7.30;74.90;;;;;;5031202;28;20059;-83
2022/02/04 19:09:03;;;;;;;13.35;7.65;;;7.30;74.50;;;;;;5034842;28;20503;-80
2022/02/04 19:11:36;;;;;;;14.05;8.27;;;7.20;74.70;;;;;;5037062;28;20030;-81
2022/02/04 19:14:16;;;;;;;17.95;8.25;;;7.20;74.30;;;;;;5036769;28;20404;-81
2022/02/04 19:19:48;;;;;;;9.27;5.82;;;7.30;74.20;;;;;;5037476;28;20492;-80
2022/02/04 19:24:44;;;;;;;17.50;9.95;;;7.20;74.20;;;;;;5034801;28;20034;-77
2022/02/04 19:27:10;;;;;;;13.38;8.13;;;7.20;74.10;;;;;;5034729;28;20419;-77
2022/02/04 19:29:42;;;;;;;9.88;6.53;;;7.30;73.80;;;;;;5034972;28;20036;-76
2022/02/04 19:32:08;;;;;;;11.38;6.50;;;7.30;74.10;;;;;;5036222;28;20080;-77
2022/02/04 19:34:34;;;;;;;12.65;7.25;;;7.30;73.50;;;;;;5031836;28;20030;-78
2022/02/04 19:37:00;;;;;;;12.48;6.90;;;7.50;73.10;;;;;;5026168;28;20163;-78
2022/02/04 19:39:29;;;;;;;18.52;8.10;;;7.50;73.10;;;;;;5030075;28;20045;-78
2022/02/04 19:42:09;;;;;;;13.18;7.55;;;7.50;73.10;;;;;;5035985;28;20400;-82
2022/02/04 19:44:37;;;;;;;11.38;6.20;;;7.50;73.20;;;;;;5024007;28;20498;-77